Terminal Aerodrome Forecast
Issued by NWS New Orleans/Baton Rouge, LA

Home | Current Version | Previous Version | Text Only | Print | Product List | Glossary On
Versions: 1 2 3 4 5 6 7 8 9 10 11 12 13 14 15 16 17 18 19 20
456
FTUS44 KLIX 232337
TAFBTR
TAF
KBTR 232337Z 2400/2424 19006KT P6SM FEW250
     FM240700 16006KT P6SM SCT050
     FM240800 16005KT 3SM BR BKN035
     FM240900 17005KT 2SM BR BKN020
      TEMPO 2411/2415 1SM BR BKN008
     FM241500 19009KT P6SM BKN020
     FM241700 20009KT P6SM SCT035=

USA.gov is the U.S. government's official web portal to all federal, state and local government web resources and services.